sensor_id;sensor_type;location;lat;lon;timestamp;pressure;altitude;pressure_sealevel;temperature;humidity
70909;BME280;58554;52.006;5.926;2023-04-30T00:00:44;101516.38;;;11.71;57.02
70909;BME280;58554;52.006;5.926;2023-04-30T00:03:11;101513.75;;;11.71;57.20
70909;BME280;58554;52.006;5.926;2023-04-30T00:05:37;101518.97;;;11.73;57.15
70909;BME280;58554;52.006;5.926;2023-04-30T00:08:04;101520.66;;;11.74;57.24
70909;BME280;58554;52.006;5.926;2023-04-30T00:10:30;101515.53;;;11.71;57.22
70909;BME280;58554;52.006;5.926;2023-04-30T00:12:57;101515.59;;;11.69;57.19
70909;BME280;58554;52.006;5.926;2023-04-30T00:15:23;101523.69;;;11.66;57.29
70909;BME280;58554;52.006;5.926;2023-04-30T00:17:52;101529.16;;;11.63;57.20
70909;BME280;58554;52.006;5.926;2023-04-30T00:20:19;101527.44;;;11.62;57.31
70909;BME280;58554;52.006;5.926;2023-04-30T00:22:45;101530.19;;;11.61;57.12
70909;BME280;58554;52.006;5.926;2023-04-30T00:25:12;101515.25;;;11.58;57.22
70909;BME280;58554;52.006;5.926;2023-04-30T00:27:38;101527.72;;;11.56;57.44
70909;BME280;58554;52.006;5.926;2023-04-30T00:30:06;101518.94;;;11.55;57.42
70909;BME280;58554;52.006;5.926;2023-04-30T00:32:33;101523.31;;;11.57;57.44
70909;BME280;58554;52.006;5.926;2023-04-30T00:35:03;101528.59;;;11.57;57.33
70909;BME280;58554;52.006;5.926;2023-04-30T00:37:30;101522.59;;;11.53;57.37
70909;BME280;58554;52.006;5.926;2023-04-30T00:39:57;101524.47;;;11.51;57.23
70909;BME280;58554;52.006;5.926;2023-04-30T00:42:23;101521.88;;;11.49;57.06
70909;BME280;58554;52.006;5.926;2023-04-30T00:44:49;101523.75;;;11.47;57.30
70909;BME280;58554;52.006;5.926;2023-04-30T00:47:16;101525.72;;;11.44;57.10
70909;BME280;58554;52.006;5.926;2023-04-30T00:49:43;101525.00;;;11.40;57.22
70909;BME280;58554;52.006;5.926;2023-04-30T00:52:13;101525.13;;;11.37;57.08
70909;BME280;58554;52.006;5.926;2023-04-30T00:54:39;101517.34;;;11.34;57.29
70909;BME280;58554;52.006;5.926;2023-04-30T00:57:08;101524.50;;;11.32;57.32
70909;BME280;58554;52.006;5.926;2023-04-30T00:59:37;101524.63;;;11.29;57.20
70909;BME280;58554;52.006;5.926;2023-04-30T01:02:04;101526.44;;;11.28;57.54
70909;BME280;58554;52.006;5.926;2023-04-30T01:04:31;101526.06;;;11.36;57.52
70909;BME280;58554;52.006;5.926;2023-04-30T01:06:58;101533.66;;;11.44;57.21
70909;BME280;58554;52.006;5.926;2023-04-30T01:09:28;101528.03;;;11.50;57.30
70909;BME280;58554;52.006;5.926;2023-04-30T01:11:59;101530.31;;;11.58;57.41
70909;BME280;58554;52.006;5.926;2023-04-30T01:14:40;101525.72;;;11.61;57.15
70909;BME280;58554;52.006;5.926;2023-04-30T01:17:28;101536.09;;;11.66;56.94
70909;BME280;58554;52.006;5.926;2023-04-30T01:20:00;101530.72;;;11.67;56.89
70909;BME280;58554;52.006;5.926;2023-04-30T01:22:35;101534.28;;;11.66;56.81
70909;BME280;58554;52.006;5.926;2023-04-30T01:25:24;101534.28;;;11.66;56.73
70909;BME280;58554;52.006;5.926;2023-04-30T01:28:04;101529.94;;;11.65;56.95
70909;BME280;58554;52.006;5.926;2023-04-30T01:30:35;101531.63;;;11.66;56.85
70909;BME280;58554;52.006;5.926;2023-04-30T01:33:03;101528.84;;;11.69;56.78
70909;BME280;58554;52.006;5.926;2023-04-30T01:38:58;101526.19;;;11.69;56.74
70909;BME280;58554;52.006;5.926;2023-04-30T01:41:34;101527.13;;;11.68;56.79
70909;BME280;58554;52.006;5.926;2023-04-30T01:44:23;101525.50;;;11.66;56.79
70909;BME280;58554;52.006;5.926;2023-04-30T01:47:05;101527.28;;;11.65;56.59
70909;BME280;58554;52.006;5.926;2023-04-30T01:49:45;101525.66;;;11.63;56.81
70909;BME280;58554;52.006;5.926;2023-04-30T01:52:30;101523.16;;;11.60;56.59
70909;BME280;58554;52.006;5.926;2023-04-30T01:55:10;101533.97;;;11.55;56.71
70909;BME280;58554;52.006;5.926;2023-04-30T01:57:51;101524.47;;;11.51;56.56
70909;BME280;58554;52.006;5.926;2023-04-30T02:00:25;101531.78;;;11.46;56.74
70909;BME280;58554;52.006;5.926;2023-04-30T02:02:51;101533.66;;;11.44;56.62
70909;BME280;58554;52.006;5.926;2023-04-30T02:05:18;101536.44;;;11.41;56.82
70909;BME280;58554;52.006;5.926;2023-04-30T02:07:47;101541.72;;;11.41;56.90
70909;BME280;58554;52.006;5.926;2023-04-30T02:10:16;101547.09;;;11.39;56.91
70909;BME280;58554;52.006;5.926;2023-04-30T02:12:44;101547.19;;;11.38;56.75
70909;BME280;58554;52.006;5.926;2023-04-30T02:15:11;101547.31;;;11.34;57.00
70909;BME280;58554;52.006;5.926;2023-04-30T02:17:40;101534.94;;;11.35;56.76
70909;BME280;58554;52.006;5.926;2023-04-30T02:20:08;101543.94;;;11.31;56.81
70909;BME280;58554;52.006;5.926;2023-04-30T02:22:36;101541.53;;;11.26;56.74
70909;BME280;58554;52.006;5.926;2023-04-30T02:25:03;101546.03;;;11.24;56.76
70909;BME280;58554;52.006;5.926;2023-04-30T02:27:31;101551.50;;;11.21;56.94
70909;BME280;58554;52.006;5.926;2023-04-30T02:29:59;101548.13;;;11.18;57.00
70909;BME280;58554;52.006;5.926;2023-04-30T02:32:26;101548.25;;;11.14;57.03
70909;BME280;58554;52.006;5.926;2023-04-30T02:34:55;101541.31;;;11.12;57.16
70909;BME280;58554;52.006;5.926;2023-04-30T02:37:22;101550.28;;;11.09;57.21
70909;BME280;58554;52.006;5.926;2023-04-30T02:39:48;101546.91;;;11.06;57.22
70909;BME280;58554;52.006;5.926;2023-04-30T02:42:15;101542.63;;;11.03;57.18
70909;BME280;58554;52.006;5.926;2023-04-30T02:44:42;101539.19;;;11.01;57.27
70909;BME280;58554;52.006;5.926;2023-04-30T02:47:08;101542.84;;;10.99;57.24
70909;BME280;58554;52.006;5.926;2023-04-30T02:49:35;101543.91;;;10.94;57.31
70909;BME280;58554;52.006;5.926;2023-04-30T02:52:04;101544.81;;;10.93;57.39
70909;BME280;58554;52.006;5.926;2023-04-30T02:54:30;101542.19;;;10.93;57.28
70909;BME280;58554;52.006;5.926;2023-04-30T02:56:57;101541.28;;;10.94;57.25
70909;BME280;58554;52.006;5.926;2023-04-30T02:59:23;101536.88;;;10.93;57.14
70909;BME280;58554;52.006;5.926;2023-04-30T03:01:50;101537.00;;;10.92;57.38
70909;BME280;58554;52.006;5.926;2023-04-30T03:04:16;101535.25;;;10.91;57.20
70909;BME280;58554;52.006;5.926;2023-04-30T03:06:43;101529.19;;;10.89;57.24
70909;BME280;58554;52.006;5.926;2023-04-30T03:09:12;101530.09;;;10.88;57.28
70909;BME280;58554;52.006;5.926;2023-04-30T03:11:39;101530.16;;;10.86;57.61
70909;BME280;58554;52.006;5.926;2023-04-30T03:14:05;101526.72;;;10.84;57.47
70909;BME280;58554;52.006;5.926;2023-04-30T03:16:32;101524.06;;;10.84;57.47
70909;BME280;58554;52.006;5.926;2023-04-30T03:18:58;101527.56;;;10.85;57.59
70909;BME280;58554;52.006;5.926;2023-04-30T03:21:25;101522.28;;;10.85;57.69
70909;BME280;58554;52.006;5.926;2023-04-30T03:23:51;101520.41;;;10.87;57.43
70909;BME280;58554;52.006;5.926;2023-04-30T03:26:20;101529.19;;;10.89;57.56
70909;BME280;58554;52.006;5.926;2023-04-30T03:28:47;101522.97;;;10.90;57.44
70909;BME280;58554;52.006;5.926;2023-04-30T03:31:13;101525.53;;;10.91;57.57
70909;BME280;58554;52.006;5.926;2023-04-30T03:33:40;101521.16;;;10.90;57.51
70909;BME280;58554;52.006;5.926;2023-04-30T03:36:06;101520.31;;;10.90;57.72
70909;BME280;58554;52.006;5.926;2023-04-30T03:38:33;101525.63;;;10.90;57.67
70909;BME280;58554;52.006;5.926;2023-04-30T03:40:59;101525.53;;;10.91;57.78
70909;BME280;58554;52.006;5.926;2023-04-30T03:43:28;101520.16;;;10.93;57.87
70909;BME280;58554;52.006;5.926;2023-04-30T03:45:55;101519.31;;;10.92;57.73
70909;BME280;58554;52.006;5.926;2023-04-30T03:48:21;101523.59;;;10.95;57.55
70909;BME280;58554;52.006;5.926;2023-04-30T03:50:48;101525.34;;;10.96;57.80
70909;BME280;58554;52.006;5.926;2023-04-30T03:53:14;101524.38;;;10.97;57.90
70909;BME280;58554;52.006;5.926;2023-04-30T03:55:41;101525.22;;;10.98;57.91
70909;BME280;58554;52.006;5.926;2023-04-30T03:58:08;101526.97;;;10.99;57.87
70909;BME280;58554;52.006;5.926;2023-04-30T04:00:39;101527.03;;;10.97;57.72
70909;BME280;58554;52.006;5.926;2023-04-30T04:03:06;101522.69;;;10.96;57.98
70909;BME280;58554;52.006;5.926;2023-04-30T04:05:32;101518.31;;;10.95;58.01
70909;BME280;58554;52.006;5.926;2023-04-30T04:07:58;101515.66;;;10.95;58.12
70909;BME280;58554;52.006;5.926;2023-04-30T04:10:25;101516.59;;;10.94;57.84
70909;BME280;58554;52.006;5.926;2023-04-30T04:12:51;101519.31;;;10.92;57.96
70909;BME280;58554;52.006;5.926;2023-04-30T04:15:18;101520.31;;;10.90;57.89
70909;BME280;58554;52.006;5.926;2023-04-30T04:17:47;101513.50;;;10.84;57.68
70909;BME280;58554;52.006;5.926;2023-04-30T04:20:13;101521.78;;;10.77;57.68
70909;BME280;58554;52.006;5.926;2023-04-30T04:22:40;101523.00;;;10.69;57.62
70909;BME280;58554;52.006;5.926;2023-04-30T04:25:07;101518.03;;;10.62;57.70
70909;BME280;58554;52.006;5.926;2023-04-30T04:27:34;101519.31;;;10.53;57.66
70909;BME280;58554;52.006;5.926;2023-04-30T04:30:02;101532.97;;;10.44;57.73
70909;BME280;58554;52.006;5.926;2023-04-30T04:32:29;101523.72;;;10.33;58.06
70909;BME280;58554;52.006;5.926;2023-04-30T04:34:58;101536.41;;;10.25;57.97
70909;BME280;58554;52.006;5.926;2023-04-30T04:37:25;101533.31;;;10.16;58.10
70909;BME280;58554;52.006;5.926;2023-04-30T04:39:51;101529.22;;;10.08;58.39
70909;BME280;58554;52.006;5.926;2023-04-30T04:42:18;101527.75;;;10.01;58.25
70909;BME280;58554;52.006;5.926;2023-04-30T04:44:45;101531.50;;;9.96;58.54
70909;BME280;58554;52.006;5.926;2023-04-30T04:47:11;101526.56;;;9.88;58.69
70909;BME280;58554;52.006;5.926;2023-04-30T04:49:38;101530.31;;;9.82;58.92
70909;BME280;58554;52.006;5.926;2023-04-30T04:52:07;101526.16;;;9.77;58.85
70909;BME280;58554;52.006;5.926;2023-04-30T04:54:34;101536.97;;;9.70;59.08
70909;BME280;58554;52.006;5.926;2023-04-30T04:57:00;101533.66;;;9.65;59.19
70909;BME280;58554;52.006;5.926;2023-04-30T04:59:26;101532.91;;;9.62;59.33
70909;BME280;58554;52.006;5.926;2023-04-30T05:01:53;101538.34;;;9.59;59.31
70909;BME280;58554;52.006;5.926;2023-04-30T05:04:20;101535.88;;;9.54;59.42
70909;BME280;58554;52.006;5.926;2023-04-30T05:06:46;101536.00;;;9.51;59.76
70909;BME280;58554;52.006;5.926;2023-04-30T05:09:15;101537.00;;;9.48;59.71
70909;BME280;58554;52.006;5.926;2023-04-30T05:11:42;101541.53;;;9.45;59.85
70909;BME280;58554;52.006;5.926;2023-04-30T05:14:08;101537.25;;;9.42;60.11
70909;BME280;58554;52.006;5.926;2023-04-30T05:16:35;101544.41;;;9.39;60.08
70909;BME280;58554;52.006;5.926;2023-04-30T05:19:01;101541.91;;;9.36;60.03
70909;BME280;58554;52.006;5.926;2023-04-30T05:21:28;101545.47;;;9.35;60.38
70909;BME280;58554;52.006;5.926;2023-04-30T05:23:54;101535.88;;;9.32;60.55
70909;BME280;58554;52.006;5.926;2023-04-30T05:26:23;101542.88;;;9.33;60.30
70909;BME280;58554;52.006;5.926;2023-04-30T05:28:50;101538.47;;;9.33;60.55
70909;BME280;58554;52.006;5.926;2023-04-30T05:31:16;101540.22;;;9.33;60.85
70909;BME280;58554;52.006;5.926;2023-04-30T05:33:43;101541.97;;;9.34;60.96
70909;BME280;58554;52.006;5.926;2023-04-30T05:36:10;101538.38;;;9.35;60.95
70909;BME280;58554;52.006;5.926;2023-04-30T05:38:36;101541.03;;;9.35;61.03
70909;BME280;58554;52.006;5.926;2023-04-30T05:41:03;101545.47;;;9.35;61.09
70909;BME280;58554;52.006;5.926;2023-04-30T05:43:32;101549.88;;;9.34;61.14
70909;BME280;58554;52.006;5.926;2023-04-30T05:45:59;101539.31;;;9.34;61.38
70909;BME280;58554;52.006;5.926;2023-04-30T05:48:25;101540.13;;;9.36;61.32
70909;BME280;58554;52.006;5.926;2023-04-30T05:50:52;101537.34;;;9.39;61.35
70909;BME280;58554;52.006;5.926;2023-04-30T05:53:18;101538.09;;;9.43;61.47
70909;BME280;58554;52.006;5.926;2023-04-30T05:55:45;101540.63;;;9.46;61.35
70909;BME280;58554;52.006;5.926;2023-04-30T05:58:11;101544.06;;;9.48;61.42
70909;BME280;58554;52.006;5.926;2023-04-30T06:00:40;101543.97;;;9.49;61.48
70909;BME280;58554;52.006;5.926;2023-04-30T06:03:07;101546.56;;;9.51;61.70
70909;BME280;58554;52.006;5.926;2023-04-30T06:05:33;101547.41;;;9.51;61.77
70909;BME280;58554;52.006;5.926;2023-04-30T06:07:59;101546.44;;;9.54;61.67
70909;BME280;58554;52.006;5.926;2023-04-30T06:10:26;101547.13;;;9.59;61.78
70909;BME280;58554;52.006;5.926;2023-04-30T06:12:52;101543.44;;;9.63;61.95
70909;BME280;58554;52.006;5.926;2023-04-30T06:15:19;101549.50;;;9.65;61.78
70909;BME280;58554;52.006;5.926;2023-04-30T06:17:49;101554.97;;;9.61;61.66
70909;BME280;58554;52.006;5.926;2023-04-30T06:20:16;101560.31;;;9.59;61.97
70909;BME280;58554;52.006;5.926;2023-04-30T06:22:42;101561.91;;;9.63;62.01
70909;BME280;58554;52.006;5.926;2023-04-30T06:25:09;101573.09;;;9.70;61.96
70909;BME280;58554;52.006;5.926;2023-04-30T06:27:35;101569.41;;;9.74;62.15
70909;BME280;58554;52.006;5.926;2023-04-30T06:30:02;101569.28;;;9.77;62.25
70909;BME280;58554;52.006;5.926;2023-04-30T06:32:30;101574.19;;;9.86;62.18
70909;BME280;58554;52.006;5.926;2023-04-30T06:34:59;101567.59;;;9.97;62.19
70909;BME280;58554;52.006;5.926;2023-04-30T06:37:26;101569.78;;;10.07;62.15
70909;BME280;58554;52.006;5.926;2023-04-30T06:39:52;101566.81;;;10.15;62.16
70909;BME280;58554;52.006;5.926;2023-04-30T06:42:19;101567.34;;;10.23;61.99
70909;BME280;58554;52.006;5.926;2023-04-30T06:44:45;101560.06;;;10.28;61.86
70909;BME280;58554;52.006;5.926;2023-04-30T06:47:11;101564.09;;;10.37;62.03
70909;BME280;58554;52.006;5.926;2023-04-30T06:49:38;101567.97;;;10.49;62.22
70909;BME280;58554;52.006;5.926;2023-04-30T06:52:07;101571.78;;;10.62;61.94
70909;BME280;58554;52.006;5.926;2023-04-30T06:54:33;101568.69;;;10.73;61.96
70909;BME280;58554;52.006;5.926;2023-04-30T06:57:00;101576.03;;;10.85;61.90
70909;BME280;58554;52.006;5.926;2023-04-30T06:59:26;101573.16;;;10.91;61.74
70909;BME280;58554;52.006;5.926;2023-04-30T07:01:53;101569.25;;;11.00;61.61
70909;BME280;58554;52.006;5.926;2023-04-30T07:04:19;101570.59;;;11.09;61.80
70909;BME280;58554;52.006;5.926;2023-04-30T07:06:46;101572.75;;;11.20;61.75
70909;BME280;58554;52.006;5.926;2023-04-30T07:09:15;101568.50;;;11.34;61.69
70909;BME280;58554;52.006;5.926;2023-04-30T07:11:41;101576.88;;;11.44;61.50
70909;BME280;58554;52.006;5.926;2023-04-30T07:14:08;101573.94;;;11.50;61.21
70909;BME280;58554;52.006;5.926;2023-04-30T07:16:34;101576.13;;;11.60;61.36
70909;BME280;58554;52.006;5.926;2023-04-30T07:19:01;101572.09;;;11.70;60.86
70909;BME280;58554;52.006;5.926;2023-04-30T07:21:27;101577.88;;;11.78;61.03
70909;BME280;58554;52.006;5.926;2023-04-30T07:23:54;101575.47;;;11.91;60.82
70909;BME280;58554;52.006;5.926;2023-04-30T07:26:23;101574.84;;;12.03;60.69
70909;BME280;58554;52.006;5.926;2023-04-30T07:28:49;101574.47;;;12.11;60.39
70909;BME280;58554;52.006;5.926;2023-04-30T07:31:16;101575.78;;;12.20;60.33
70909;BME280;58554;52.006;5.926;2023-04-30T07:33:42;101580.72;;;12.27;60.22
70909;BME280;58554;52.006;5.926;2023-04-30T07:36:09;101581.22;;;12.35;60.25
70909;BME280;58554;52.006;5.926;2023-04-30T07:38:35;101586.88;;;12.45;59.87
70909;BME280;58554;52.006;5.926;2023-04-30T07:41:02;101575.03;;;12.52;59.49
70909;BME280;58554;52.006;5.926;2023-04-30T07:43:31;101581.78;;;12.58;59.45
70909;BME280;58554;52.006;5.926;2023-04-30T07:45:58;101575.22;;;12.65;59.42
70909;BME280;58554;52.006;5.926;2023-04-30T07:48:24;101582.94;;;12.70;59.54
70909;BME280;58554;52.006;5.926;2023-04-30T07:50:51;101575.59;;;12.75;59.27
70909;BME280;58554;52.006;5.926;2023-04-30T07:53:17;101577.91;;;12.81;59.22
70909;BME280;58554;52.006;5.926;2023-04-30T07:55:44;101578.34;;;12.89;59.15
70909;BME280;58554;52.006;5.926;2023-04-30T07:58:10;101576.31;;;12.94;58.76
70909;BME280;58554;52.006;5.926;2023-04-30T08:00:39;101579.56;;;13.00;58.71
70909;BME280;58554;52.006;5.926;2023-04-30T08:03:07;101579.41;;;13.03;58.43
70909;BME280;58554;52.006;5.926;2023-04-30T08:05:33;101579.22;;;13.06;58.25
70909;BME280;58554;52.006;5.926;2023-04-30T08:08:00;101579.84;;;13.11;58.30
70909;BME280;58554;52.006;5.926;2023-04-30T08:10:27;101582.31;;;13.14;58.21
70909;BME280;58554;52.006;5.926;2023-04-30T08:12:53;101589.19;;;13.18;57.97
70909;BME280;58554;52.006;5.926;2023-04-30T08:15:20;101587.22;;;13.22;58.16
70909;BME280;58554;52.006;5.926;2023-04-30T08:17:49;101582.50;;;13.27;58.07
70909;BME280;58554;52.006;5.926;2023-04-30T08:20:17;101584.16;;;13.29;57.86
70909;BME280;58554;52.006;5.926;2023-04-30T08:22:44;101587.38;;;13.34;57.94
70909;BME280;58554;52.006;5.926;2023-04-30T08:25:11;101586.28;;;13.38;57.68
70909;BME280;58554;52.006;5.926;2023-04-30T08:27:38;101580.19;;;13.36;57.59
70909;BME280;58554;52.006;5.926;2023-04-30T08:30:06;101586.28;;;13.38;57.81
70909;BME280;58554;52.006;5.926;2023-04-30T08:32:33;101583.47;;;13.42;57.94
70909;BME280;58554;52.006;5.926;2023-04-30T08:35:04;101583.28;;;13.45;57.69
70909;BME280;58554;52.006;5.926;2023-04-30T08:37:31;101584.81;;;13.49;57.76
70909;BME280;58554;52.006;5.926;2023-04-30T08:39:58;101581.19;;;13.50;57.33
70909;BME280;58554;52.006;5.926;2023-04-30T08:42:29;101584.53;;;13.53;57.68
70909;BME280;58554;52.006;5.926;2023-04-30T08:45:02;101578.06;;;13.59;57.55
70909;BME280;58554;52.006;5.926;2023-04-30T08:47:29;101579.41;;;13.66;57.32
70909;BME280;58554;52.006;5.926;2023-04-30T08:49:56;101575.63;;;13.70;57.42
70909;BME280;58554;52.006;5.926;2023-04-30T08:52:27;101577.19;;;13.74;56.99
70909;BME280;58554;52.006;5.926;2023-04-30T08:54:56;101582.34;;;13.77;57.03
70909;BME280;58554;52.006;5.926;2023-04-30T08:57:26;101572.34;;;13.81;56.78
70909;BME280;58554;52.006;5.926;2023-04-30T08:59:52;101576.66;;;13.84;56.35
70909;BME280;58554;52.006;5.926;2023-04-30T09:02:19;101573.88;;;13.85;56.79
70909;BME280;58554;52.006;5.926;2023-04-30T09:04:47;101566.69;;;13.87;56.42
70909;BME280;58554;52.006;5.926;2023-04-30T09:07:15;101569.34;;;13.87;56.31
70909;BME280;58554;52.006;5.926;2023-04-30T09:09:45;101565.56;;;13.91;56.17
70909;BME280;58554;52.006;5.926;2023-04-30T09:12:13;101567.22;;;13.94;55.62
70909;BME280;58554;52.006;5.926;2023-04-30T09:14:41;101561.69;;;13.97;55.93
70909;BME280;58554;52.006;5.926;2023-04-30T09:17:24;101560.56;;;14.01;55.82
70909;BME280;58554;52.006;5.926;2023-04-30T09:19:51;101569.16;;;14.06;55.71
70909;BME280;58554;52.006;5.926;2023-04-30T09:22:19;101563.34;;;14.14;55.71
70909;BME280;58554;52.006;5.926;2023-04-30T09:24:50;101567.38;;;14.21;55.56
70909;BME280;58554;52.006;5.926;2023-04-30T09:27:17;101560.25;;;14.22;55.33
70909;BME280;58554;52.006;5.926;2023-04-30T09:29:45;101563.06;;;14.18;55.34
70909;BME280;58554;52.006;5.926;2023-04-30T09:32:11;101553.19;;;14.21;55.57
70909;BME280;58554;52.006;5.926;2023-04-30T09:34:38;101559.19;;;14.24;55.40
70909;BME280;58554;52.006;5.926;2023-04-30T09:37:05;101559.94;;;14.26;55.58
70909;BME280;58554;52.006;5.926;2023-04-30T09:39:32;101557.13;;;14.29;55.12
70909;BME280;58554;52.006;5.926;2023-04-30T09:42:10;101566.72;;;14.32;54.93
70909;BME280;58554;52.006;5.926;2023-04-30T09:44:38;101563.97;;;14.33;55.32
70909;BME280;58554;52.006;5.926;2023-04-30T09:47:10;101558.38;;;14.38;55.13
70909;BME280;58554;52.006;5.926;2023-04-30T09:49:40;101553.13;;;14.36;55.13
70909;BME280;58554;52.006;5.926;2023-04-30T09:52:08;101553.13;;;14.36;55.02
70909;BME280;58554;52.006;5.926;2023-04-30T09:54:35;101553.72;;;14.42;55.01
70909;BME280;58554;52.006;5.926;2023-04-30T09:57:02;101542.88;;;14.45;54.84
70909;BME280;58554;52.006;5.926;2023-04-30T09:59:32;101549.53;;;14.52;54.75
70909;BME280;58554;52.006;5.926;2023-04-30T10:02:00;101544.78;;;14.57;54.96
70909;BME280;58554;52.006;5.926;2023-04-30T10:04:30;101539.16;;;14.62;54.90
70909;BME280;58554;52.006;5.926;2023-04-30T10:07:01;101534.59;;;14.64;54.61
70909;BME280;58554;52.006;5.926;2023-04-30T10:09:36;101529.75;;;14.70;54.53
70909;BME280;58554;52.006;5.926;2023-04-30T10:12:07;101521.53;;;14.75;54.42
70909;BME280;58554;52.006;5.926;2023-04-30T10:14:51;101523.03;;;14.79;54.25
70909;BME280;58554;52.006;5.926;2023-04-30T10:17:25;101525.41;;;14.84;54.43
70909;BME280;58554;52.006;5.926;2023-04-30T10:20:00;101517.31;;;14.85;54.65
70909;BME280;58554;52.006;5.926;2023-04-30T10:22:33;101520.56;;;14.90;54.17
70909;BME280;58554;52.006;5.926;2023-04-30T10:25:00;101518.66;;;14.92;53.91
70909;BME280;58554;52.006;5.926;2023-04-30T10:27:28;101517.69;;;14.93;54.15
70909;BME280;58554;52.006;5.926;2023-04-30T10:29:58;101511.22;;;14.97;53.98
70909;BME280;58554;52.006;5.926;2023-04-30T10:32:31;101513.59;;;15.02;53.94
70909;BME280;58554;52.006;5.926;2023-04-30T10:35:09;101508.06;;;15.05;54.09
70909;BME280;58554;52.006;5.926;2023-04-30T10:37:46;101507.75;;;15.10;53.85
70909;BME280;58554;52.006;5.926;2023-04-30T10:40:17;101510.03;;;15.16;53.72
70909;BME280;58554;52.006;5.926;2023-04-30T10:42:46;101505.34;;;15.19;53.77
70909;BME280;58554;52.006;5.926;2023-04-30T10:45:17;101508.38;;;15.28;54.28
70909;BME280;58554;52.006;5.926;2023-04-30T10:47:44;101510.66;;;15.34;54.06
70909;BME280;58554;52.006;5.926;2023-04-30T10:50:11;101502.34;;;15.38;54.27
70909;BME280;58554;52.006;5.926;2023-04-30T10:52:38;101497.69;;;15.42;53.87
70909;BME280;58554;52.006;5.926;2023-04-30T10:55:06;101500.22;;;15.44;53.78
70909;BME280;58554;52.006;5.926;2023-04-30T10:57:40;101502.88;;;15.44;53.88
70909;BME280;58554;52.006;5.926;2023-04-30T11:00:24;101493.19;;;15.43;53.81
70909;BME280;58554;52.006;5.926;2023-04-30T11:02:55;101485.19;;;15.43;53.77
70909;BME280;58554;52.006;5.926;2023-04-30T11:05:34;101480.81;;;15.42;53.64
70909;BME280;58554;52.006;5.926;2023-04-30T11:08:01;101479.88;;;15.43;53.84
70909;BME280;58554;52.006;5.926;2023-04-30T11:10:32;101477.84;;;15.46;53.96
70909;BME280;58554;52.006;5.926;2023-04-30T11:13:03;101475.81;;;15.50;53.80
70909;BME280;58554;52.006;5.926;2023-04-30T11:15:38;101479.47;;;15.49;53.60
70909;BME280;58554;52.006;5.926;2023-04-30T11:18:07;101478.81;;;15.45;54.09
70909;BME280;58554;52.006;5.926;2023-04-30T11:20:39;101474.31;;;15.46;54.19
70909;BME280;58554;52.006;5.926;2023-04-30T11:23:10;101473.38;;;15.47;53.97
70909;BME280;58554;52.006;5.926;2023-04-30T11:25:40;101474.13;;;15.49;53.90
70909;BME280;58554;52.006;5.926;2023-04-30T11:28:12;101472.97;;;15.53;54.04
70909;BME280;58554;52.006;5.926;2023-04-30T11:30:49;101471.06;;;15.55;53.85
70909;BME280;58554;52.006;5.926;2023-04-30T11:33:17;101463.81;;;15.57;53.97
70909;BME280;58554;52.006;5.926;2023-04-30T11:35:44;101467.13;;;15.61;54.08
70909;BME280;58554;52.006;5.926;2023-04-30T11:38:11;101453.38;;;15.67;54.16
70909;BME280;58554;52.006;5.926;2023-04-30T11:40:40;101449.34;;;15.74;53.86
70909;BME280;58554;52.006;5.926;2023-04-30T11:43:20;101453.19;;;15.83;53.77
70909;BME280;58554;52.006;5.926;2023-04-30T11:46:10;101449.91;;;15.92;53.80
70909;BME280;58554;52.006;5.926;2023-04-30T11:48:39;101445.00;;;15.98;53.87
70909;BME280;58554;52.006;5.926;2023-04-30T11:51:14;101442.66;;;16.07;53.69
70909;BME280;58554;52.006;5.926;2023-04-30T11:53:41;101442.34;;;16.11;53.45
70909;BME280;58554;52.006;5.926;2023-04-30T11:56:08;101427.81;;;16.15;53.54
70909;BME280;58554;52.006;5.926;2023-04-30T11:58:35;101429.09;;;16.23;53.47
70909;BME280;58554;52.006;5.926;2023-04-30T12:01:02;101413.91;;;16.36;53.20
70909;BME280;58554;52.006;5.926;2023-04-30T12:03:38;101414.41;;;16.54;52.91
70909;BME280;58554;52.006;5.926;2023-04-30T12:06:09;101419.50;;;16.70;53.31
70909;BME280;58554;52.006;5.926;2023-04-30T12:08:36;101414.97;;;16.83;53.06
70909;BME280;58554;52.006;5.926;2023-04-30T12:11:03;101419.56;;;16.94;53.03
70909;BME280;58554;52.006;5.926;2023-04-30T12:13:30;101401.88;;;17.04;52.61
70909;BME280;58554;52.006;5.926;2023-04-30T12:15:57;101410.03;;;17.14;52.62
70909;BME280;58554;52.006;5.926;2023-04-30T12:18:26;101407.28;;;17.27;52.49
70909;BME280;58554;52.006;5.926;2023-04-30T12:20:55;101405.75;;;17.35;52.12
70909;BME280;58554;52.006;5.926;2023-04-30T12:23:21;101395.44;;;17.42;51.66
70909;BME280;58554;52.006;5.926;2023-04-30T12:25:48;101398.84;;;17.44;51.46
70909;BME280;58554;52.006;5.926;2023-04-30T12:28:15;101404.81;;;17.48;51.65
70909;BME280;58554;52.006;5.926;2023-04-30T12:30:41;101401.19;;;17.49;51.16
70909;BME280;58554;52.006;5.926;2023-04-30T12:33:09;101394.72;;;17.51;50.84
70909;BME280;58554;52.006;5.926;2023-04-30T12:35:36;101395.34;;;17.55;50.79
70909;BME280;58554;52.006;5.926;2023-04-30T12:38:10;101398.50;;;17.60;51.00
70909;BME280;58554;52.006;5.926;2023-04-30T12:40:45;101400.50;;;17.69;50.85
70909;BME280;58554;52.006;5.926;2023-04-30T12:43:14;101390.06;;;17.77;50.82
70909;BME280;58554;52.006;5.926;2023-04-30T12:45:44;101391.91;;;17.88;50.83
70909;BME280;58554;52.006;5.926;2023-04-30T12:48:13;101389.25;;;17.99;50.63
70909;BME280;58554;52.006;5.926;2023-04-30T12:50:41;101377.81;;;18.09;50.15
70909;BME280;58554;52.006;5.926;2023-04-30T12:53:10;101383.66;;;18.25;50.24
70909;BME280;58554;52.006;5.926;2023-04-30T12:55:37;101382.16;;;18.44;49.77
70909;BME280;58554;52.006;5.926;2023-04-30T12:58:07;101376.19;;;18.63;49.45
70909;BME280;58554;52.006;5.926;2023-04-30T13:00:45;101380.75;;;18.83;49.06
70909;BME280;58554;52.006;5.926;2023-04-30T13:03:13;101381.19;;;18.99;49.02